createdAt,value
2023-04-06T00:00:12.223Z,17.40
2023-04-06T00:02:38.821Z,13.93
2023-04-06T00:05:05.797Z,20.42
2023-04-06T00:07:32.394Z,20.55
2023-04-06T00:09:58.910Z,18.17
2023-04-06T00:12:25.426Z,19.70
2023-04-06T00:14:51.959Z,13.50
2023-04-06T00:17:18.709Z,16.70
2023-04-06T00:19:45.287Z,18.33
2023-04-06T00:22:11.902Z,15.25
2023-04-06T00:24:38.509Z,16.27
2023-04-06T00:27:05.022Z,19.40
2023-04-06T00:29:31.602Z,14.98
2023-04-06T00:31:58.181Z,13.32
2023-04-06T00:34:24.743Z,14.55
2023-04-06T00:36:51.320Z,13.85
2023-04-06T00:39:19.732Z,17.10
2023-04-06T00:41:51.718Z,15.23
2023-04-06T00:44:18.759Z,15.43
2023-04-06T00:46:45.595Z,15.23
2023-04-06T00:49:12.459Z,13.27
2023-04-06T00:51:39.020Z,12.13
2023-04-06T00:54:05.657Z,16.00
2023-04-06T00:56:32.777Z,15.10
2023-04-06T00:58:59.764Z,18.95
2023-04-06T01:01:26.387Z,16.58
2023-04-06T01:03:53.306Z,16.77
2023-04-06T01:06:19.849Z,15.55
2023-04-06T01:08:46.456Z,15.07
2023-04-06T01:11:13.005Z,11.43
2023-04-06T01:13:39.588Z,15.48
2023-04-06T01:16:06.442Z,13.45
2023-04-06T01:18:33.050Z,16.15
2023-04-06T01:20:59.598Z,15.75
2023-04-06T01:23:26.184Z,15.00
2023-04-06T01:25:52.743Z,15.52
2023-04-06T01:28:19.286Z,14.45
2023-04-06T01:30:45.804Z,13.00
2023-04-06T01:33:12.356Z,16.20
2023-04-06T01:35:38.971Z,14.70
2023-04-06T01:38:05.532Z,12.38
2023-04-06T01:40:32.117Z,15.00
2023-04-06T01:42:58.679Z,16.35
2023-04-06T01:45:25.287Z,16.17
2023-04-06T01:47:51.887Z,18.75
2023-04-06T01:50:18.444Z,11.95
2023-04-06T01:52:44.987Z,13.80
2023-04-06T01:55:11.522Z,14.98
2023-04-06T01:57:38.086Z,14.18
2023-04-06T02:00:05.335Z,16.77
2023-04-06T02:02:31.937Z,16.95
2023-04-06T02:04:58.507Z,17.92
2023-04-06T02:07:25.096Z,14.85
2023-04-06T02:09:55.553Z,14.52
2023-04-06T02:12:22.174Z,16.08
2023-04-06T02:14:48.723Z,13.60
2023-04-06T02:17:15.246Z,13.65
2023-04-06T02:19:41.851Z,15.88
2023-04-06T02:22:08.411Z,18.92
2023-04-06T02:24:34.903Z,14.20
2023-04-06T02:27:01.428Z,16.85
2023-04-06T02:29:28.062Z,14.80
2023-04-06T02:31:54.652Z,19.88
2023-04-06T02:34:21.234Z,15.98
2023-04-06T02:36:48.173Z,15.93
2023-04-06T02:39:15.088Z,18.02
2023-04-06T02:41:41.579Z,14.90
2023-04-06T02:44:09.361Z,15.00
2023-04-06T02:46:35.860Z,14.63
2023-04-06T02:49:02.398Z,16.13
2023-04-06T02:51:28.945Z,15.95
2023-04-06T02:53:55.451Z,23.42
2023-04-06T02:56:22.124Z,15.75
2023-04-06T02:58:48.664Z,16.13
2023-04-06T03:01:15.315Z,14.32
2023-04-06T03:03:42.060Z,15.23
2023-04-06T03:06:08.759Z,12.55
2023-04-06T03:08:35.258Z,12.93
2023-04-06T03:11:01.970Z,15.70
2023-04-06T03:13:28.539Z,13.55
2023-04-06T03:15:55.163Z,12.00
2023-04-06T03:18:26.001Z,14.77
2023-04-06T03:20:52.850Z,12.20
2023-04-06T03:23:19.351Z,13.95
2023-04-06T03:25:45.878Z,16.02
2023-04-06T03:28:12.367Z,11.55
2023-04-06T03:30:38.939Z,17.25
2023-04-06T03:33:05.622Z,22.45
2023-04-06T03:35:32.237Z,15.68
2023-04-06T03:37:58.795Z,13.68
2023-04-06T03:40:31.151Z,12.48
2023-04-06T03:42:57.887Z,14.00
2023-04-06T03:45:24.523Z,14.73
2023-04-06T03:47:51.081Z,17.50
2023-04-06T03:50:17.766Z,16.58
2023-04-06T03:52:44.263Z,16.20
2023-04-06T03:55:10.769Z,16.52
2023-04-06T03:57:37.277Z,12.25
2023-04-06T04:00:04.464Z,15.32
2023-04-06T04:02:31.133Z,12.70
2023-04-06T04:04:57.752Z,19.20
2023-04-06T04:07:24.320Z,12.52
2023-04-06T04:09:50.905Z,11.98
2023-04-06T04:12:17.421Z,16.90
2023-04-06T04:14:43.955Z,13.13
2023-04-06T04:17:10.529Z,13.50
2023-04-06T04:19:37.081Z,18.80
2023-04-06T04:22:03.638Z,19.15
2023-04-06T04:24:30.187Z,16.23
2023-04-06T04:26:56.810Z,15.70
2023-04-06T04:29:23.532Z,13.32
2023-04-06T04:31:50.562Z,14.73
2023-04-06T04:34:17.135Z,12.77
2023-04-06T04:36:43.682Z,14.18
2023-04-06T04:39:10.291Z,18.50
2023-04-06T04:41:36.900Z,15.15
2023-04-06T04:44:03.425Z,16.42
2023-04-06T04:46:29.928Z,14.95
2023-04-06T04:48:56.714Z,14.90
2023-04-06T04:51:23.258Z,15.15
2023-04-06T04:53:49.750Z,19.55
2023-04-06T04:56:16.254Z,11.60
2023-04-06T04:58:42.766Z,16.75
2023-04-06T05:01:09.549Z,19.70
2023-04-06T05:03:37.608Z,17.50
2023-04-06T05:06:04.511Z,20.20
2023-04-06T05:08:31.034Z,13.32
2023-04-06T05:10:57.653Z,25.52
2023-04-06T05:13:24.206Z,14.73
2023-04-06T05:15:50.868Z,20.02
2023-04-06T05:18:17.616Z,19.27
2023-04-06T05:20:44.250Z,20.02
2023-04-06T05:23:10.792Z,25.25
2023-04-06T05:25:37.351Z,34.95
2023-04-06T05:28:04.005Z,26.00
2023-04-06T05:30:30.635Z,117.28
2023-04-06T05:32:57.395Z,84.20
2023-04-06T05:35:23.991Z,36.00
2023-04-06T05:37:50.550Z,30.67
2023-04-06T05:40:17.212Z,19.20
2023-04-06T05:42:43.912Z,17.05
2023-04-06T05:45:11.921Z,14.00
2023-04-06T05:47:38.513Z,18.23
2023-04-06T05:50:05.751Z,18.35
2023-04-06T05:52:32.263Z,17.98
2023-04-06T05:54:58.765Z,18.60
2023-04-06T05:57:25.366Z,17.58
2023-04-06T05:59:51.921Z,16.55
2023-04-06T06:02:18.565Z,14.85
2023-04-06T06:04:45.170Z,13.15
2023-04-06T06:07:11.705Z,16.33
2023-04-06T06:09:38.226Z,15.70
2023-04-06T06:12:04.964Z,14.40
2023-04-06T06:14:31.546Z,14.30
2023-04-06T06:16:58.072Z,15.68
2023-04-06T06:19:24.631Z,17.77
2023-04-06T06:21:51.218Z,13.68
2023-04-06T06:24:17.807Z,16.80
2023-04-06T06:26:44.351Z,16.80
2023-04-06T06:29:10.906Z,14.02
2023-04-06T06:31:37.565Z,15.75
2023-04-06T06:34:04.114Z,16.02
2023-04-06T06:36:30.610Z,19.30
2023-04-06T06:38:57.229Z,15.80
2023-04-06T06:41:23.871Z,20.50
2023-04-06T06:43:50.387Z,21.02
2023-04-06T06:46:16.983Z,17.75
2023-04-06T06:48:43.631Z,17.17
2023-04-06T06:51:10.286Z,14.45
2023-04-06T06:53:36.817Z,15.68
2023-04-06T06:56:03.424Z,17.58
2023-04-06T06:58:29.936Z,16.40
2023-04-06T07:01:00.237Z,17.13
2023-04-06T07:03:27.011Z,14.00
2023-04-06T07:05:53.613Z,16.02
2023-04-06T07:08:21.835Z,18.65
2023-04-06T07:10:48.609Z,15.70
2023-04-06T07:13:15.776Z,15.20
2023-04-06T07:15:42.320Z,17.50
2023-04-06T07:18:08.953Z,20.65
2023-04-06T07:20:35.549Z,19.15
2023-04-06T07:23:02.156Z,15.20
2023-04-06T07:25:28.793Z,16.13
2023-04-06T07:27:55.393Z,16.88
2023-04-06T07:30:22.028Z,14.77
2023-04-06T07:32:49.101Z,16.65
2023-04-06T07:35:16.241Z,18.45
2023-04-06T07:37:42.846Z,14.50
2023-04-06T07:40:09.891Z,14.43
2023-04-06T07:42:36.431Z,20.27
2023-04-06T07:45:03.104Z,15.43
2023-04-06T07:47:29.752Z,16.75
2023-04-06T07:49:56.462Z,18.23
2023-04-06T07:52:23.019Z,14.80
2023-04-06T07:54:49.601Z,18.63
2023-04-06T07:57:16.250Z,15.73
2023-04-06T07:59:42.930Z,17.48
2023-04-06T08:02:09.633Z,18.63
2023-04-06T08:04:37.076Z,18.50
2023-04-06T08:07:03.718Z,19.02
2023-04-06T08:09:30.249Z,16.77
2023-04-06T08:11:56.751Z,15.98
2023-04-06T08:14:23.288Z,16.02
2023-04-06T08:16:49.831Z,17.25
2023-04-06T08:19:16.413Z,19.10
2023-04-06T08:21:42.998Z,15.27
2023-04-06T08:24:09.802Z,16.17
2023-04-06T08:26:36.566Z,18.50
2023-04-06T08:29:03.321Z,17.17
2023-04-06T08:31:29.903Z,14.80
2023-04-06T08:33:56.502Z,17.83
2023-04-06T08:36:23.322Z,17.75
2023-04-06T08:38:50.272Z,17.63
2023-04-06T08:41:17.496Z,20.08
2023-04-06T08:43:55.715Z,19.30
2023-04-06T08:46:22.495Z,17.63
2023-04-06T08:48:49.350Z,16.98
2023-04-06T08:51:16.516Z,18.58
2023-04-06T08:53:43.021Z,18.90
2023-04-06T08:56:11.499Z,15.65
2023-04-06T08:58:40.750Z,19.77
2023-04-06T09:01:09.392Z,15.10
2023-04-06T09:03:39.245Z,16.45
2023-04-06T09:06:06.996Z,17.90
2023-04-06T09:08:34.788Z,17.98
2023-04-06T09:11:05.040Z,20.05
2023-04-06T09:13:31.915Z,14.93
2023-04-06T09:16:06.087Z,17.98
2023-04-06T09:18:33.831Z,18.00
2023-04-06T09:21:04.532Z,19.02
2023-04-06T09:23:32.915Z,16.27
2023-04-06T09:26:10.549Z,17.45
2023-04-06T09:28:52.614Z,13.60
2023-04-06T09:31:27.071Z,12.98
2023-04-06T09:33:54.323Z,15.25
2023-04-06T09:36:29.949Z,12.98
2023-04-06T09:38:58.743Z,13.45
2023-04-06T09:41:33.807Z,16.05
2023-04-06T09:44:11.892Z,11.90
2023-04-06T09:46:58.013Z,14.20
2023-04-06T09:49:31.117Z,14.48
2023-04-06T09:52:03.305Z,13.02
2023-04-06T09:54:31.984Z,12.25
2023-04-06T09:57:22.799Z,14.18
2023-04-06T10:00:06.824Z,12.93
2023-04-06T10:02:42.463Z,14.73
2023-04-06T10:05:10.514Z,11.18
2023-04-06T10:07:46.134Z,14.32
2023-04-06T10:10:16.568Z,12.40
2023-04-06T10:12:45.105Z,12.60
2023-04-06T10:15:12.009Z,15.18
2023-04-06T10:17:38.687Z,14.35
2023-04-06T10:20:12.564Z,16.85
2023-04-06T10:22:46.310Z,18.33
2023-04-06T10:25:12.894Z,14.48
2023-04-06T10:27:39.480Z,15.57
2023-04-06T10:30:07.316Z,14.40
2023-04-06T10:32:38.362Z,13.85
2023-04-06T10:35:12.791Z,16.40
2023-04-06T10:37:50.965Z,13.90
2023-04-06T10:40:22.555Z,12.75
2023-04-06T10:42:49.269Z,12.00
2023-04-06T10:45:26.732Z,13.18
2023-04-06T10:47:54.518Z,12.98
2023-04-06T10:50:22.203Z,12.63
2023-04-06T10:53:00.135Z,11.50
2023-04-06T10:55:28.335Z,14.00
2023-04-06T10:57:55.117Z,12.80
2023-04-06T11:00:21.935Z,12.93
2023-04-06T11:02:48.483Z,12.93
2023-04-06T11:05:16.174Z,10.65
2023-04-06T11:07:43.106Z,10.40
2023-04-06T11:10:16.686Z,8.27
2023-04-06T11:12:55.842Z,9.48
2023-04-06T11:15:22.654Z,10.20
2023-04-06T11:17:49.884Z,8.20
2023-04-06T11:20:16.690Z,6.30
2023-04-06T11:22:52.843Z,7.22
2023-04-06T11:25:19.748Z,6.90
2023-04-06T11:27:48.293Z,6.25
2023-04-06T11:30:15.581Z,7.93
2023-04-06T11:32:43.672Z,7.45
2023-04-06T11:35:21.753Z,6.00
2023-04-06T11:37:52.699Z,7.03
2023-04-06T11:40:23.370Z,9.90
2023-04-06T11:42:56.368Z,8.73
2023-04-06T11:45:23.695Z,10.57
2023-04-06T11:47:58.425Z,9.27
2023-04-06T11:50:25.087Z,12.27
2023-04-06T11:53:09.553Z,9.05
2023-04-06T11:55:39.788Z,11.18
2023-04-06T11:58:06.477Z,7.53
2023-04-06T12:00:33.082Z,9.38
2023-04-06T12:02:59.742Z,11.07
2023-04-06T12:05:26.366Z,10.07
2023-04-06T12:07:52.903Z,9.65
2023-04-06T12:10:19.525Z,11.52
2023-04-06T12:12:46.071Z,12.45
2023-04-06T12:15:12.614Z,7.30
2023-04-06T12:17:39.183Z,10.95
2023-04-06T12:20:18.107Z,9.65
2023-04-06T12:22:51.592Z,10.18
2023-04-06T12:25:18.245Z,11.68
2023-04-06T12:27:44.740Z,10.73
2023-04-06T12:30:11.662Z,12.27
2023-04-06T12:32:38.187Z,9.02
2023-04-06T12:35:05.071Z,8.43
2023-04-06T12:37:31.595Z,8.48
2023-04-06T12:39:58.142Z,8.60
2023-04-06T12:42:24.683Z,9.50
2023-04-06T12:44:51.202Z,10.68
2023-04-06T12:47:17.696Z,9.38
2023-04-06T12:49:44.302Z,10.30
2023-04-06T12:52:11.484Z,6.30
2023-04-06T12:54:38.020Z,14.80
2023-04-06T12:57:04.573Z,14.27
2023-04-06T12:59:31.198Z,11.43
2023-04-06T13:01:57.852Z,11.65
2023-04-06T13:04:24.431Z,11.93
2023-04-06T13:06:50.944Z,13.32
2023-04-06T13:09:17.422Z,11.35
2023-04-06T13:11:43.960Z,12.95
2023-04-06T13:14:10.607Z,13.30
2023-04-06T13:16:37.175Z,12.55
2023-04-06T13:19:03.850Z,9.30
2023-04-06T13:21:30.384Z,12.25
2023-04-06T13:23:56.929Z,13.43
2023-04-06T13:26:23.448Z,10.90
2023-04-06T13:28:50.046Z,10.95
2023-04-06T13:31:16.631Z,12.65
2023-04-06T13:33:43.216Z,12.90
2023-04-06T13:36:09.843Z,11.65
2023-04-06T13:38:36.531Z,11.98
2023-04-06T13:41:03.069Z,13.68
2023-04-06T13:43:29.607Z,12.80
2023-04-06T13:45:56.687Z,15.98
2023-04-06T13:48:23.287Z,14.45
2023-04-06T13:50:49.858Z,12.90
2023-04-06T13:53:16.346Z,15.15
2023-04-06T13:55:42.862Z,15.00
2023-04-06T13:58:09.687Z,14.75
2023-04-06T14:00:36.780Z,14.38
2023-04-06T14:03:03.715Z,15.45
2023-04-06T14:05:34.064Z,13.10
2023-04-06T14:08:00.729Z,14.65
2023-04-06T14:10:27.288Z,12.35
2023-04-06T14:12:53.789Z,12.45
2023-04-06T14:15:20.265Z,11.80
2023-04-06T14:17:46.847Z,12.52
2023-04-06T14:20:13.399Z,8.15
2023-04-06T14:22:39.983Z,10.65
2023-04-06T14:25:07.021Z,12.48
2023-04-06T14:27:33.526Z,10.95
2023-04-06T14:30:00.014Z,9.50
2023-04-06T14:32:26.581Z,10.25
2023-04-06T14:34:53.162Z,8.02
2023-04-06T14:37:19.709Z,7.25
2023-04-06T14:39:46.237Z,6.63
2023-04-06T14:42:12.782Z,7.35
2023-04-06T14:44:39.397Z,7.40
2023-04-06T14:47:06.529Z,10.55
2023-04-06T14:49:33.233Z,9.95
2023-04-06T14:52:00.595Z,6.30
2023-04-06T14:54:27.284Z,9.85
2023-04-06T14:56:53.775Z,10.80
2023-04-06T14:59:20.270Z,11.60
2023-04-06T15:01:46.904Z,10.73
2023-04-06T15:04:13.630Z,12.65
2023-04-06T15:06:40.319Z,11.10
2023-04-06T15:09:06.893Z,11.13
2023-04-06T15:11:33.427Z,11.15
2023-04-06T15:14:01.546Z,11.25
2023-04-06T15:16:28.136Z,12.50
2023-04-06T15:18:54.635Z,13.68
2023-04-06T15:21:21.273Z,10.07
2023-04-06T15:23:47.888Z,11.45
2023-04-06T15:26:14.497Z,12.35
2023-04-06T15:28:41.127Z,9.80
2023-04-06T15:31:20.636Z,10.05
2023-04-06T15:33:50.966Z,8.73
2023-04-06T15:36:28.998Z,10.95
2023-04-06T15:38:56.535Z,10.18
2023-04-06T15:41:23.076Z,9.82
2023-04-06T15:43:50.153Z,9.93
2023-04-06T15:46:16.891Z,6.97
2023-04-06T15:48:43.682Z,8.48
2023-04-06T15:51:10.478Z,7.53
2023-04-06T15:53:37.596Z,8.75
2023-04-06T15:56:06.721Z,8.48
2023-04-06T15:58:34.145Z,10.82
2023-04-06T16:01:00.748Z,8.02
2023-04-06T16:08:25.846Z,7.13
2023-04-06T16:10:52.385Z,8.75
2023-04-06T16:13:18.914Z,7.38
2023-04-06T16:15:49.231Z,6.63
2023-04-06T16:18:15.808Z,5.07
2023-04-06T16:20:42.383Z,7.10
2023-04-06T16:23:08.941Z,4.22
2023-04-06T16:25:35.460Z,5.10
2023-04-06T16:28:02.012Z,4.80
2023-04-06T16:30:28.502Z,4.97
2023-04-06T16:32:55.085Z,5.20
2023-04-06T16:35:21.799Z,5.03
2023-04-06T16:37:48.712Z,4.07
2023-04-06T16:40:15.566Z,4.03
2023-04-06T16:42:45.254Z,6.00
2023-04-06T16:45:12.494Z,4.63
2023-04-06T16:47:39.196Z,3.72
2023-04-06T16:50:06.740Z,4.93
2023-04-06T16:52:34.150Z,4.90
2023-04-06T16:55:02.226Z,6.15
2023-04-06T16:57:28.749Z,5.70
2023-04-06T16:59:56.344Z,5.30
2023-04-06T17:02:24.302Z,6.88
2023-04-06T17:04:51.093Z,5.30
2023-04-06T17:07:17.747Z,4.72
2023-04-06T17:09:44.348Z,5.60
2023-04-06T17:12:10.830Z,8.52
2023-04-06T17:14:37.310Z,5.60
2023-04-06T17:17:03.903Z,6.25
2023-04-06T17:19:30.448Z,7.50
2023-04-06T17:21:57.015Z,5.65
2023-04-06T17:24:23.487Z,5.32
2023-04-06T17:26:49.967Z,5.75
2023-04-06T17:29:16.504Z,7.00
2023-04-06T17:31:45.883Z,7.20
2023-04-06T17:34:12.402Z,5.50
2023-04-06T17:36:38.912Z,5.65
2023-04-06T17:39:05.468Z,5.43
2023-04-06T17:41:32.006Z,5.13
2023-04-06T17:43:58.898Z,6.03
2023-04-06T17:46:25.551Z,6.15
2023-04-06T17:48:52.182Z,4.80
2023-04-06T17:51:18.910Z,5.40
2023-04-06T17:53:46.170Z,7.32
2023-04-06T17:56:12.758Z,6.05
2023-04-06T17:58:40.439Z,5.40
2023-04-06T18:01:07.817Z,6.63
2023-04-06T18:03:34.999Z,4.63
2023-04-06T18:06:15.356Z,5.40
2023-04-06T18:08:42.133Z,4.63
2023-04-06T18:11:15.258Z,5.97
2023-04-06T18:13:41.794Z,5.32
2023-04-06T18:16:08.445Z,5.95
2023-04-06T18:18:35.060Z,6.20
2023-04-06T18:21:05.663Z,5.93
2023-04-06T18:23:33.690Z,5.05
2023-04-06T18:26:06.974Z,5.55
2023-04-06T18:28:33.822Z,5.65
2023-04-06T18:31:00.708Z,5.93
2023-04-06T18:33:27.328Z,5.50
2023-04-06T18:35:54.491Z,4.70
2023-04-06T18:38:21.026Z,4.88
2023-04-06T18:40:47.572Z,3.85
2023-04-06T18:43:15.451Z,4.53
2023-04-06T18:45:42.022Z,4.80
2023-04-06T18:48:08.778Z,4.28
2023-04-06T18:50:35.334Z,4.65
2023-04-06T18:53:02.089Z,5.55
2023-04-06T18:55:31.597Z,4.82
2023-04-06T18:57:58.114Z,5.70
2023-04-06T19:00:24.720Z,6.18
2023-04-06T19:02:51.556Z,5.65
2023-04-06T19:05:18.561Z,7.32
2023-04-06T19:07:45.134Z,5.97
2023-04-06T19:10:11.916Z,8.95
2023-04-06T19:12:40.452Z,6.25
2023-04-06T19:15:08.129Z,6.78
2023-04-06T19:17:35.352Z,7.07
2023-04-06T19:20:02.504Z,7.55
2023-04-06T19:22:29.202Z,6.90
2023-04-06T19:24:55.781Z,7.80
2023-04-06T19:27:22.675Z,8.68
2023-04-06T19:29:56.342Z,8.20
2023-04-06T19:32:23.284Z,7.10
2023-04-06T19:34:50.593Z,9.93
2023-04-06T19:37:17.415Z,7.43
2023-04-06T19:39:44.021Z,8.48
2023-04-06T19:42:11.308Z,7.65
2023-04-06T19:44:39.571Z,8.20
2023-04-06T19:47:12.390Z,8.05
2023-04-06T19:49:39.883Z,9.77
2023-04-06T19:52:07.955Z,8.75
2023-04-06T19:54:34.641Z,6.97
2023-04-06T19:57:02.026Z,6.40
2023-04-06T19:59:29.174Z,6.68
2023-04-06T20:01:56.047Z,8.40
2023-04-06T20:04:23.963Z,11.50
2023-04-06T20:06:51.400Z,10.23
2023-04-06T20:09:17.973Z,8.05
2023-04-06T20:11:44.732Z,8.00
2023-04-06T20:14:11.370Z,10.40
2023-04-06T20:16:38.183Z,10.15
2023-04-06T20:19:05.019Z,7.35
2023-04-06T20:21:31.755Z,10.15
2023-04-06T20:23:58.322Z,8.27
2023-04-06T20:26:25.079Z,7.03
2023-04-06T20:28:51.767Z,11.52
2023-04-06T20:31:18.563Z,8.75
2023-04-06T20:33:48.166Z,11.25
2023-04-06T20:36:14.893Z,12.68
2023-04-06T20:38:41.491Z,10.05
2023-04-06T20:41:08.314Z,10.15
2023-04-06T20:43:35.010Z,9.27
2023-04-06T20:46:02.198Z,9.57
2023-04-06T20:48:31.139Z,10.70
2023-04-06T20:50:59.432Z,11.88
2023-04-06T20:53:26.144Z,9.88
2023-04-06T20:55:56.277Z,10.35
2023-04-06T20:58:26.389Z,7.65
2023-04-06T21:00:53.253Z,9.50
2023-04-06T21:03:19.999Z,11.02
2023-04-06T21:05:57.050Z,7.78
2023-04-06T21:08:23.578Z,9.00
2023-04-06T21:10:50.108Z,9.40
2023-04-06T21:13:16.889Z,8.88
2023-04-06T21:15:45.640Z,8.65
2023-04-06T21:18:12.360Z,10.05
2023-04-06T21:20:38.905Z,7.90
2023-04-06T21:23:05.517Z,9.65
2023-04-06T21:25:32.105Z,11.30
2023-04-06T21:27:58.801Z,11.15
2023-04-06T21:30:27.044Z,10.38
2023-04-06T21:32:53.913Z,11.07
2023-04-06T21:35:22.564Z,9.60
2023-04-06T21:37:50.405Z,10.90
2023-04-06T21:40:17.085Z,10.63
2023-04-06T21:42:46.853Z,11.98
2023-04-06T21:45:13.564Z,12.60
2023-04-06T21:47:40.220Z,15.15
2023-04-06T21:50:10.370Z,10.20
2023-04-06T21:52:37.209Z,14.27
2023-04-06T21:55:04.683Z,10.40
2023-04-06T21:57:31.285Z,10.10
2023-04-06T21:59:57.825Z,13.35
2023-04-06T22:02:24.513Z,15.38
2023-04-06T22:04:51.189Z,12.20
2023-04-06T22:07:17.769Z,17.23
2023-04-06T22:09:44.310Z,13.70
2023-04-06T22:12:10.831Z,10.48
2023-04-06T22:14:37.341Z,12.50
2023-04-06T22:17:03.854Z,13.60
2023-04-06T22:19:30.365Z,16.13
2023-04-06T22:21:57.043Z,14.57
2023-04-06T22:24:23.616Z,15.68
2023-04-06T22:26:50.148Z,14.38
2023-04-06T22:29:16.641Z,13.07
2023-04-06T22:31:45.458Z,15.48
2023-04-06T22:34:13.240Z,17.70
2023-04-06T22:36:39.791Z,16.35
2023-04-06T22:39:06.445Z,14.88
2023-04-06T22:41:32.924Z,18.58
2023-04-06T22:43:59.433Z,14.90
2023-04-06T22:46:25.971Z,17.52
2023-04-06T22:48:52.499Z,13.82
2023-04-06T22:51:19.112Z,17.88
2023-04-06T22:53:45.728Z,14.00
2023-04-06T22:56:12.230Z,16.70
2023-04-06T22:58:38.705Z,15.82
2023-04-06T23:01:05.465Z,20.05
2023-04-06T23:03:32.149Z,20.23
2023-04-06T23:05:58.718Z,17.92
2023-04-06T23:08:25.261Z,19.98
2023-04-06T23:10:51.795Z,19.85
2023-04-06T23:13:18.339Z,21.98
2023-04-06T23:15:44.869Z,20.63
2023-04-06T23:18:11.348Z,21.88
2023-04-06T23:20:38.935Z,24.48
2023-04-06T23:23:05.446Z,23.20
2023-04-06T23:25:31.980Z,19.55
2023-04-06T23:27:58.514Z,19.58
2023-04-06T23:30:25.020Z,23.55
2023-04-06T23:32:51.485Z,18.08
2023-04-06T23:35:18.050Z,17.60
2023-04-06T23:37:44.564Z,19.80
2023-04-06T23:40:11.422Z,22.17
2023-04-06T23:42:37.903Z,21.05
2023-04-06T23:45:04.866Z,20.30
2023-04-06T23:47:31.600Z,22.30
2023-04-06T23:49:58.564Z,25.75
2023-04-06T23:52:25.087Z,21.65
2023-04-06T23:54:51.566Z,21.60
2023-04-06T23:57:18.074Z,21.15
2023-04-06T23:59:44.913Z,23.80
